地図

経路データ

SID SEASON NUMBER BASIN SUBBASIN NAME ISO_TIME NATURE LAT LON WMO_WIND WMO_PRES WMO_AGENCY TRACK_TYPE DIST2LAND LANDFALL IFLAG USA_AGENCY USA_ATCF_ID USA_LAT USA_LON USA_RECORD USA_STATUS USA_WIND USA_PRES USA_SSHS USA_R34_NE USA_R34_SE USA_R34_SW USA_R34_NW USA_R50_NE USA_R50_SE USA_R50_SW USA_R50_NW USA_R64_NE USA_R64_SE USA_R64_SW USA_R64_NW USA_POCI USA_ROCI USA_RMW USA_EYE TOKYO_LAT TOKYO_LON TOKYO_GRADE TOKYO_WIND TOKYO_PRES TOKYO_R50_DIR TOKYO_R50_LONG TOKYO_R50_SHORT TOKYO_R30_DIR TOKYO_R30_LONG TOKYO_R30_SHORT TOKYO_LAND CMA_LAT CMA_LON CMA_CAT CMA_WIND CMA_PRES HKO_LAT HKO_LON HKO_CAT HKO_WIND HKO_PRES NEWDELHI_LAT NEWDELHI_LON NEWDELHI_GRADE NEWDELHI_WIND NEWDELHI_PRES NEWDELHI_CI NEWDELHI_DP NEWDELHI_POCI REUNION_LAT REUNION_LON REUNION_TYPE REUNION_WIND REUNION_PRES REUNION_TNUM REUNION_CI REUNION_RMW REUNION_R34_NE REUNION_R34_SE REUNION_R34_SW REUNION_R34_NW REUNION_R50_NE REUNION_R50_SE REUNION_R50_SW REUNION_R50_NW REUNION_R64_NE REUNION_R64_SE REUNION_R64_SW REUNION_R64_NW BOM_LAT BOM_LON BOM_TYPE BOM_WIND BOM_PRES BOM_TNUM BOM_CI BOM_RMW BOM_R34_NE BOM_R34_SE BOM_R34_SW BOM_R34_NW BOM_R50_NE BOM_R50_SE BOM_R50_SW BOM_R50_NW BOM_R64_NE BOM_R64_SE BOM_R64_SW BOM_R64_NW BOM_ROCI BOM_POCI BOM_EYE BOM_POS_METHOD BOM_PRES_METHOD NADI_LAT NADI_LON NADI_CAT NADI_WIND NADI_PRES WELLINGTON_LAT WELLINGTON_LON WELLINGTON_WIND WELLINGTON_PRES DS824_LAT DS824_LON DS824_STAGE DS824_WIND DS824_PRES TD9636_LAT TD9636_LON TD9636_STAGE TD9636_WIND TD9636_PRES TD9635_LAT TD9635_LON TD9635_WIND TD9635_PRES TD9635_ROCI NEUMANN_LAT NEUMANN_LON NEUMANN_CLASS NEUMANN_WIND NEUMANN_PRES MLC_LAT MLC_LON MLC_CLASS MLC_WIND MLC_PRES USA_GUST BOM_GUST BOM_GUST_PER REUNION_GUST REUNION_GUST_PER USA_SEAHGT USA_SEARAD_NE USA_SEARAD_SE USA_SEARAD_SW USA_SEARAD_NW STORM_SPEED STORM_DIR
1952313N13089 1952 89 NI BB NOT_NAMED 1952-11-07 18:00:00 TS 13.5000 88.5000 main 673 669 O________O____ jtwc_io IO151952 13.5000 88.5000 -1 13.5000 88.5000 TC 2 328
1952313N13089 1952 89 NI BB NOT_NAMED 1952-11-07 21:00:00 TS 13.5950 88.4425 main 679 670 P________P____ IO151952 13.5950 88.4425 -1 13.5950 88.4425 TC 3 343
1952313N13089 1952 89 NI BB NOT_NAMED 1952-11-08 00:00:00 TS 13.8000 88.4000 main 670 649 O________O____ jtwc_io IO151952 13.8000 88.4000 -1 13.8000 88.4000 TC 25 6 355
1952313N13089 1952 89 NI BB NOT_NAMED 1952-11-08 03:00:00 TS 14.1911 88.3867 main 649 609 P________PO___ IO151952 14.1900 88.3850 -1 14.1900 88.3850 TC 25 14.2000 88.4000 1 9 359
1952313N13089 1952 89 NI BB NOT_NAMED 1952-11-08 06:00:00 TS 14.7028 88.3980 main 609 570 O________OP___ jtwc_io IO151952 14.7000 88.4000 -1 14.7000 88.4000 TC 25 14.7140 88.3900 1 11 2
1952313N13089 1952 89 NI BB NOT_NAMED 1952-11-08 09:00:00 TS 15.2397 88.4211 main 570 519 P________PP___ IO151952 15.2425 88.4276 -1 15.2425 88.4276 TC 25 15.2323 88.4039 1 11 5
1952313N13089 1952 89 NI BB NOT_NAMED 1952-11-08 12:00:00 TS 15.7865 88.4886 main 519 474 O________OP___ jtwc_io IO151952 15.8000 88.5000 -1 15.8000 88.5000 TC 25 15.7595 88.4657 1 11 10
1952313N13089 1952 89 NI BB NOT_NAMED 1952-11-08 15:00:00 TS 16.3050 88.6084 main 474 438 P________PO___ IO151952 16.3074 88.6127 -1 16.3074 88.6127 TC 30 16.3000 88.6000 1 11 17
1952313N13089 1952 89 NI BB NOT_NAMED 1952-11-08 18:00:00 TS 16.8169 88.8066 main 438 407 O________OP___ jtwc_io IO151952 16.8000 88.8000 -1 16.8000 88.8000 TC 35 16.8506 88.8197 1 11 24
1952313N13089 1952 89 NI BB NOT_NAMED 1952-11-08 21:00:00 TS 17.3460 89.0967 main 414 398 P________PP___ IO151952 17.3301 89.0997 -1 17.3301 89.0997 TC 35 17.3779 89.0908 1 11 29
1952313N13089 1952 89 NI BB NOT_NAMED 1952-11-09 00:00:00 TS 17.8137 89.3889 main 398 383 O________OP___ jtwc_io IO151952 17.8000 89.4000 -1 17.8000 89.4000 TC 35 17.8413 89.3667 1 10 29
1952313N13089 1952 89 NI BB NOT_NAMED 1952-11-09 03:00:00 TS 18.1783 89.5918 main 383 363 P________PO___ IO151952 18.1674 89.5877 -1 18.1674 89.5877 TC 35 18.2000 89.6000 3 7 27
1952313N13089 1952 89 NI BB NOT_NAMED 1952-11-09 06:00:00 TS 18.3998 89.7074 main 363 352 O________OP___ jtwc_io IO151952 18.4000 89.7000 -1 18.4000 89.7000 TC 35 18.3994 89.7221 3 4 28
1952313N13089 1952 89 NI BB NOT_NAMED 1952-11-09 09:00:00 TS 18.4857 89.7704 main 354 354 P________PP___ IO151952 18.4800 89.7576 -1 18.4800 89.7576 TC 30 18.4972 89.7960 3 2 43
1952313N13089 1952 89 NI BB NOT_NAMED 1952-11-09 12:00:00 TS 18.5155 89.8156 main 354 345 O________OP___ jtwc_io IO151952 18.5000 89.8000 -1 18.5000 89.8000 TC 25 18.5464 89.8469 3 2 49
1952313N13089 1952 89 NI BB NOT_NAMED 1952-11-09 15:00:00 TS 18.5900 89.8950 main 345 334 P________PO___ IO151952 18.5850 89.8925 -1 18.5850 89.8925 TC 25 18.6000 89.9000 1 3 42
1952313N13089 1952 89 NI BB NOT_NAMED 1952-11-09 18:00:00 TS 18.7051 89.9963 main 334 319 O________OP___ jtwc_io IO151952 18.7000 90.0000 -1 18.7000 90.0000 TC 25 18.7153 89.9889 1 3 37
1952313N13089 1952 89 NI BB NOT_NAMED 1952-11-09 21:00:00 TS 18.8392 90.0951 main 319 298 P________PP___ IO151952 18.8350 90.1000 -1 18.8350 90.1000 TC 25 18.8475 90.0852 1 4 32
1952313N13089 1952 89 NI BB NOT_NAMED 1952-11-10 00:00:00 TS 19.0020 90.1963 main 298 276 O________OP___ jtwc_io IO151952 19.0000 90.2000 -1 19.0000 90.2000 TC 25 19.0059 90.1889 1 4 29
1952313N13089 1952 89 NI BB NOT_NAMED 1952-11-10 03:00:00 TS 19.1850 90.2951 main 276 254 P________PO___ IO151952 19.1775 90.2926 -1 19.1775 90.2926 TC 25 19.2000 90.3000 1 5 26
1952313N13089 1952 89 NI BB NOT_NAMED 1952-11-10 06:00:00 TS 19.4103 90.4059 main 254 227 O________OP___ jtwc_io IO151952 19.4000 90.4000 -1 19.4000 90.4000 TC 25 19.4309 90.4178 1 6 25
1952313N13089 1952 89 NI BB NOT_NAMED 1952-11-10 09:00:00 TS 19.6892 90.5475 main 227 193 P________PP___ IO151952 19.6850 90.5499 -1 19.6850 90.5499 TC 25 19.6975 90.5425 1 6 25
1952313N13089 1952 89 NI BB NOT_NAMED 1952-11-10 12:00:00 TS 19.9968 90.6903 main 193 168 O________OP___ jtwc_io IO151952 20.0000 90.7000 -1 20.0000 90.7000 TC 25 19.9903 90.6710 1 7 21
1952313N13089 1952 89 NI BB NOT_NAMED 1952-11-10 15:00:00 TS 20.2950 90.8001 main 168 141 P________PO___ IO151952 20.2925 90.8001 -1 20.2925 90.8001 TC 25 20.3000 90.8000 1 7 19
1952313N13089 1952 89 NI BB NOT_NAMED 1952-11-10 18:00:00 TS 20.6117 90.9150 main 141 106 O________OP___ jtwc_io IO151952 20.6000 90.9000 -1 20.6000 90.9000 TC 25 20.6350 90.9450 1 7 20
1952313N13089 1952 89 NI BB NOT_NAMED 1952-11-10 21:00:00 TS 20.9650 91.0623 main 99 75 P________PP___ IO151952 20.9575 91.0499 -1 20.9575 91.0499 TC 25 20.9801 91.0871 1 7 21
1952313N13089 1952 89 NI BB NOT_NAMED 1952-11-11 00:00:00 TS 21.3033 91.2036 main 75 62 O________OP___ jtwc_io IO151952 21.3000 91.2000 -1 21.3000 91.2000 TC 25 21.3100 91.2106 1 7 21
1952313N13089 1952 89 NI BB NOT_NAMED 1952-11-11 03:00:00 TS 21.5867 91.3200 main 63 51 P________PO___ IO151952 21.5800 91.3300 -1 21.5800 91.3300 TC 25 21.6000 91.3000 1 5 18
1952313N13089 1952 89 NI BB NOT_NAMED 1952-11-11 06:00:00 TS 21.8047 91.3774 main 51 46 O________OP___ jtwc_io IO151952 21.8000 91.4000 -1 21.8000 91.4000 TC 25 21.8140 91.3323 1 4 7
1952313N13089 1952 89 NI BB NOT_NAMED 1952-11-11 09:00:00 TS 21.9675 91.3536 main 46 46 P________PP___ IO151952 21.9575 91.3651 -1 21.9575 91.3651 TC 25 21.9874 91.3305 1 3 348
1952313N13089 1952 89 NI BB NOT_NAMED 1952-11-11 12:00:00 TS 22.1140 91.3045 main 52 44 O________OP___ jtwc_io IO151952 22.1000 91.3000 -1 22.1000 91.3000 TC 25 22.1421 91.3134 1 3 349
1952313N13089 1952 89 NI BB NOT_NAMED 1952-11-11 15:00:00 TS 22.2950 91.2900 main 44 22 P________PO___ IO151952 22.2925 91.2850 -1 22.2925 91.2850 TC 25 22.3000 91.3000 1 4 358
1952313N13089 1952 89 NI BB NOT_NAMED 1952-11-11 18:00:00 TS 22.4913 91.3020 main 22 0 O________OP___ jtwc_io IO151952 22.5000 91.3000 -1 22.5000 91.3000 TC 25 22.4782 91.3051 1 4 6
1952313N13089 1952 89 NI BB NOT_NAMED 1952-11-11 21:00:00 TS 22.6907 91.3359 main 0 0 P________PP___ IO151952 22.7025 91.3425 -1 22.7025 91.3425 TC 25 22.6750 91.3272 1 4 10
1952313N13089 1952 89 NI BB NOT_NAMED 1952-11-12 00:00:00 TS 22.8922 91.3804 main 0 0 O________OP___ jtwc_io IO151952 22.9000 91.4000 -1 22.9000 91.4000 TC 25 22.8844 91.3607 1 4 8
1952313N13089 1952 89 NI BB NOT_NAMED 1952-11-12 03:00:00 NR 23.1000 91.4000 main 0 __________O___ IO151952 -1 TC 23.1000 91.4000 1 4 7

IBTrACS Databaseについて

本データベースは、米国NOAAが公開する1842年以降の世界の熱帯低気圧のベストトラックデータアーカイブInternational Best Track Archive for Climate Stewardship (IBTrACS)を、ウェブで閲覧しやすい形式に変換したものです。

最終更新日:2021-10-21